Tropical Cyclones
[Index]
Main Index Home Page Stock Weather Photos Extreme Storms Discussion Storm News and Storm Chasing Reports Tropical Cyclones / Hurricanes / Typhoons Weather Data and Links Wild Fires / Bushfires Weather Observation Techniques Weather Picture Catalogue Tornado Pictures and Reports Stock Video Footage and DVDs for sale
Season 1970-1971 Tropical Cyclone GERTIE Track Map
Season 1970-1971 Summaries: [BoM-AU] [JTWC-AU] [JTWC-SIO] [JTWC-SPAC] [JTWC-SH]
<<- Previous TC | JTWC 1970-1971 Season | Next TC ->>

click for intensity scale information  Lat/long Grid: Show Hide

 Date Labels: Show Hide

Joint Typhoon Warning Centre Cyclone Data

Name: GERTIE
Number: 761 / 7116

11 Feb 1971 00:00 UTC to 16 Feb 1971 06:00 UTC

    date/time    lat    long     hPa   cat  kts
1971-02-11 00   17.0   149.7                  20          
1971-02-11 06   17.2   150.1                  20          
1971-02-11 12   17.6   150.7                  20          
1971-02-11 18   18.0   151.4                  20          
1971-02-12 00   18.3   152.2                  20          
1971-02-12 06   18.7   153.0                  15          
1971-02-12 12   19.1   153.4                  15          
1971-02-12 18   19.6   153.5                  25          
1971-02-13 00   20.2   153.8                  25          
1971-02-13 06   20.8   154.1                  30          
1971-02-13 12   21.6   153.9                  25          
1971-02-13 18   22.5   153.3                  25          
1971-02-14 00   22.4   152.8                  25          
1971-02-14 06   21.2   152.4                  25          
1971-02-14 12   21.0   151.6            1     40          
1971-02-14 18   21.0   150.4            2     65          
1971-02-15 00   20.5   149.6            2     60          
1971-02-15 06   19.8   148.9            1     45          
1971-02-15 12   19.2   147.8            1     45          
1971-02-15 18   18.5   146.6            1     50          
1971-02-16 00   17.9   145.5            1     45          
1971-02-16 06   17.4   144.5                  25          
Winds are 1-min average.

Tropical cyclone tracks developed by Michael Bath using data from the Joint Typhoon Warning Centre Best Tracks and Google Maps.


[Australian Severe Weather index] [Copyright Notice] [Email Contacts] [Search This Site] [Privacy Policy]
Document: tropical_cyclone_gertie.htm Updated: 18 September 2016